createdAt,value
2018-11-20T00:01:23.477Z,50.10
2018-11-20T00:04:28.058Z,49.90
2018-11-20T00:07:26.831Z,49.60
2018-11-20T00:10:31.185Z,49.50
2018-11-20T00:13:41.161Z,49.60
2018-11-20T00:16:47.587Z,49.50
2018-11-20T00:19:42.234Z,49.40
2018-11-20T00:22:57.054Z,49.50
2018-11-20T00:25:55.910Z,49.60
2018-11-20T00:29:06.718Z,49.20
2018-11-20T00:32:10.834Z,49.50
2018-11-20T00:35:15.354Z,49.30
2018-11-20T00:38:08.026Z,49.60
2018-11-20T00:41:08.918Z,49.70
2018-11-20T00:44:13.090Z,49.60
2018-11-20T00:47:15.647Z,49.60
2018-11-20T00:50:19.514Z,49.50
2018-11-20T00:53:21.006Z,49.80
2018-11-20T00:57:03.281Z,49.70
2018-11-20T00:59:59.826Z,49.70
2018-11-20T01:03:08.279Z,49.50
2018-11-20T01:06:12.902Z,49.60
2018-11-20T01:09:18.807Z,49.80
2018-11-20T01:12:24.745Z,49.70
2018-11-20T01:15:29.619Z,49.50
2018-11-20T01:18:34.201Z,50.20
2018-11-20T01:21:36.187Z,50.00
2018-11-20T01:24:35.198Z,49.70
2018-11-20T01:27:43.390Z,49.70
2018-11-20T01:31:04.494Z,49.70
2018-11-20T01:34:28.426Z,49.60
2018-11-20T01:37:21.571Z,49.20
2018-11-20T01:40:25.650Z,49.30
2018-11-20T01:43:30.014Z,49.60
2018-11-20T01:46:28.165Z,49.60
2018-11-20T01:49:29.290Z,49.60
2018-11-20T01:52:40.703Z,49.60
2018-11-20T01:55:43.502Z,49.30
2018-11-20T01:58:45.834Z,49.20
2018-11-20T02:01:53.554Z,49.30
2018-11-20T02:05:11.390Z,49.30
2018-11-20T02:08:12.643Z,49.10
2018-11-20T02:11:10.077Z,49.30
2018-11-20T02:14:22.106Z,49.20
2018-11-20T02:17:35.978Z,49.00
2018-11-20T02:20:39.343Z,49.30
2018-11-20T02:23:48.658Z,49.00
2018-11-20T02:26:49.910Z,49.30
2018-11-20T02:30:01.752Z,49.10
2018-11-20T02:32:59.182Z,48.80
2018-11-20T02:36:08.218Z,49.40
2018-11-20T02:39:15.286Z,49.10
2018-11-20T02:42:12.638Z,48.90
2018-11-20T02:45:30.783Z,49.10
2018-11-20T02:48:45.415Z,49.20
2018-11-20T02:51:51.156Z,49.80
2018-11-20T02:54:57.614Z,49.00
2018-11-20T02:58:02.430Z,49.00
2018-11-20T03:01:08.294Z,49.20
2018-11-20T03:04:13.278Z,49.00
2018-11-20T03:07:31.008Z,48.90
2018-11-20T03:10:35.630Z,48.80
2018-11-20T03:13:44.378Z,48.70
2018-11-20T03:16:50.523Z,48.80
2018-11-20T03:19:49.375Z,48.80
2018-11-20T03:22:42.865Z,48.50
2018-11-20T03:26:05.034Z,49.10
2018-11-20T03:29:40.914Z,48.60
2018-11-20T03:32:44.313Z,48.70
2018-11-20T03:35:57.877Z,48.40
2018-11-20T03:39:12.794Z,48.30
2018-11-20T03:42:19.093Z,48.20
2018-11-20T03:45:33.939Z,48.20
2018-11-20T03:48:38.518Z,48.20
2018-11-20T03:51:45.753Z,48.40
2018-11-20T03:54:50.663Z,48.30
2018-11-20T03:58:05.756Z,48.20
2018-11-20T04:01:14.554Z,48.20
2018-11-20T04:04:19.625Z,48.70
2018-11-20T04:07:24.357Z,48.10
2018-11-20T04:10:19.162Z,48.00
2018-11-20T04:13:27.818Z,48.20
2018-11-20T04:16:32.409Z,48.10
2018-11-20T04:19:56.886Z,48.20
2018-11-20T04:23:09.227Z,48.00
2018-11-20T04:26:14.474Z,48.20
2018-11-20T04:29:17.005Z,48.50
2018-11-20T04:32:21.379Z,48.10
2018-11-20T04:35:40.695Z,48.20
2018-11-20T04:38:45.774Z,48.40
2018-11-20T04:41:48.293Z,48.40
2018-11-20T04:44:50.198Z,48.60
2018-11-20T04:48:05.378Z,48.50
2018-11-20T04:51:17.661Z,48.40
2018-11-20T04:54:24.042Z,48.50
2018-11-20T04:57:32.459Z,48.60
2018-11-20T05:00:44.231Z,48.50
2018-11-20T05:03:51.382Z,48.60
2018-11-20T05:07:05.906Z,48.30
2018-11-20T05:10:07.779Z,48.30
2018-11-20T05:13:22.685Z,48.50
2018-11-20T05:16:37.629Z,48.50
2018-11-20T05:19:52.784Z,48.50
2018-11-20T05:23:10.706Z,48.30
2018-11-20T05:26:06.437Z,48.00
2018-11-20T05:29:17.990Z,48.30
2018-11-20T05:32:42.242Z,48.20
2018-11-20T05:35:53.943Z,48.10
2018-11-20T05:38:59.085Z,48.40
2018-11-20T05:41:55.599Z,48.50
2018-11-20T05:45:10.345Z,48.30
2018-11-20T05:48:19.059Z,48.40
2018-11-20T05:51:25.114Z,48.20
2018-11-20T05:54:38.798Z,48.40
2018-11-20T05:57:57.372Z,48.40
2018-11-20T06:01:15.284Z,48.50
2018-11-20T06:04:21.315Z,48.40
2018-11-20T06:07:36.291Z,48.50
2018-11-20T06:10:41.010Z,48.40
2018-11-20T06:13:36.470Z,48.50
2018-11-20T06:16:45.578Z,48.20
2018-11-20T06:20:06.634Z,48.50
2018-11-20T06:23:11.490Z,48.90
2018-11-20T06:26:08.282Z,48.70
2018-11-20T06:29:31.460Z,48.60
2018-11-20T06:32:43.535Z,48.70
2018-11-20T06:35:49.318Z,48.70
2018-11-20T06:38:53.985Z,48.90
2018-11-20T06:42:00.135Z,48.90
2018-11-20T06:45:04.853Z,48.70
2018-11-20T06:48:14.985Z,48.90
2018-11-20T06:51:17.874Z,48.90
2018-11-20T06:54:22.584Z,48.90
2018-11-20T06:57:34.341Z,49.00
2018-11-20T07:00:42.703Z,49.10
2018-11-20T07:04:07.883Z,49.10
2018-11-20T07:18:39.857Z,48.80
2018-11-20T07:21:57.779Z,49.00
2018-11-20T07:25:16.133Z,49.50
2018-11-20T07:32:57.608Z,49.60
2018-11-20T07:43:43.449Z,49.50
2018-11-20T07:47:25.901Z,49.10
2018-11-20T07:50:55.026Z,49.10
2018-11-20T07:58:21.665Z,49.10
2018-11-20T08:01:46.790Z,49.00
2018-11-20T08:05:05.455Z,49.10
2018-11-20T08:16:08.162Z,49.30
2018-11-20T08:23:13.207Z,50.00
2018-11-20T08:26:56.174Z,49.60
2018-11-20T08:34:26.654Z,49.30
2018-11-20T08:41:52.077Z,49.30
2018-11-20T08:52:48.143Z,49.70
2018-11-20T09:03:47.589Z,50.30
2018-11-20T09:07:12.582Z,49.70
2018-11-20T09:10:17.739Z,49.70
2018-11-20T09:14:00.877Z,49.90
2018-11-20T09:25:29.924Z,50.00
2018-11-20T09:29:13.939Z,50.40
2018-11-20T09:32:56.713Z,49.50
2018-11-20T09:36:38.927Z,50.20
2018-11-20T09:43:56.540Z,49.80
2018-11-20T09:55:03.938Z,50.60
2018-11-20T09:58:45.525Z,50.80
2018-11-20T10:02:15.052Z,51.00
2018-11-20T10:12:58.779Z,50.70
2018-11-20T10:20:11.235Z,50.80
2018-11-20T10:38:17.925Z,51.10
2018-11-20T10:41:45.821Z,51.00
2018-11-20T10:48:20.157Z,50.70
2018-11-20T11:10:35.646Z,51.50
2018-11-20T11:18:02.185Z,51.80
2018-11-20T11:21:26.686Z,51.80
2018-11-20T11:24:51.542Z,51.60
2018-11-20T11:28:18.078Z,51.50
2018-11-20T11:38:58.821Z,51.90
2018-11-20T11:46:04.294Z,52.30
2018-11-20T11:53:28.093Z,52.20
2018-11-20T12:07:31.097Z,51.70
2018-11-20T12:14:23.665Z,52.00
2018-11-20T12:21:51.131Z,52.00
2018-11-20T12:32:34.930Z,52.40
2018-11-20T12:40:06.446Z,52.60
2018-11-20T12:43:38.036Z,53.40
2018-11-20T12:47:03.273Z,53.00
2018-11-20T12:50:28.150Z,53.40
2018-11-20T12:57:03.418Z,53.20
2018-11-20T13:04:02.484Z,53.60
2018-11-20T13:14:28.749Z,54.20
2018-11-20T13:17:53.654Z,54.40
2018-11-20T13:25:19.067Z,54.50
2018-11-20T13:32:47.980Z,54.80
2018-11-20T13:35:53.587Z,55.10
2018-11-20T13:42:51.931Z,55.80
2018-11-20T13:46:33.217Z,55.70
2018-11-20T13:49:59.742Z,56.90
2018-11-20T13:53:24.604Z,57.50
2018-11-20T13:56:51.113Z,57.40
2018-11-20T14:00:10.855Z,57.70
2018-11-20T14:14:44.117Z,58.00
2018-11-20T14:18:11.652Z,57.90
2018-11-20T14:21:33.470Z,58.20
2018-11-20T14:25:17.630Z,58.20
2018-11-20T14:32:49.281Z,58.60
2018-11-20T14:40:15.711Z,58.30
2018-11-20T14:43:21.831Z,58.10
2018-11-20T14:47:04.778Z,59.00
2018-11-20T15:01:20.403Z,58.80
2018-11-20T15:08:16.502Z,59.60
2018-11-20T15:11:59.265Z,59.30
2018-11-20T15:15:43.356Z,58.40
2018-11-20T15:21:48.291Z,59.70
2018-11-20T15:25:03.029Z,59.20
2018-11-20T15:28:29.549Z,59.20
2018-11-20T15:39:15.929Z,59.40
2018-11-20T15:49:42.888Z,59.30
2018-11-20T15:56:38.258Z,59.70
2018-11-20T16:03:23.101Z,59.40
2018-11-20T16:16:50.728Z,59.40
2018-11-20T16:30:30.133Z,59.30
2018-11-20T16:33:29.698Z,59.30
2018-11-20T16:36:31.409Z,58.60
2018-11-20T16:39:49.173Z,59.60
2018-11-20T16:43:10.099Z,59.40
2018-11-20T16:49:34.534Z,59.20
2018-11-20T16:52:52.533Z,59.20
2018-11-20T16:56:18.111Z,59.00
2018-11-20T17:03:13.095Z,59.50
2018-11-20T17:06:27.117Z,59.40
2018-11-20T17:16:30.036Z,59.60
2018-11-20T17:30:01.817Z,59.40
2018-11-20T17:40:21.044Z,59.00
2018-11-20T17:50:39.282Z,59.10
2018-11-20T17:57:08.850Z,58.90
2018-11-20T18:03:43.791Z,59.20
2018-11-20T18:07:01.506Z,59.10
2018-11-20T18:10:20.683Z,58.80
2018-11-20T18:20:09.427Z,59.10
2018-11-20T18:29:54.548Z,59.20
2018-11-20T18:33:14.190Z,58.90
2018-11-20T18:43:15.757Z,59.40
2018-11-20T18:46:41.896Z,59.70
2018-11-20T18:53:55.917Z,59.10
2018-11-20T18:57:19.908Z,59.50
2018-11-20T19:08:43.223Z,59.00
2018-11-20T19:16:13.248Z,59.20
2018-11-20T19:19:45.609Z,59.20
2018-11-20T19:23:10.816Z,59.20
2018-11-20T19:26:56.617Z,59.20
2018-11-20T19:38:18.371Z,58.80
2018-11-20T19:45:35.618Z,59.10
2018-11-20T19:56:32.850Z,58.70
2018-11-20T20:03:43.958Z,59.20
2018-11-20T20:07:08.845Z,59.20
2018-11-20T20:10:35.325Z,59.30
2018-11-20T20:14:01.850Z,59.40
2018-11-20T20:17:26.773Z,59.10
2018-11-20T20:20:51.658Z,59.60
2018-11-20T20:24:18.137Z,60.10
2018-11-20T20:27:44.672Z,59.20
2018-11-20T20:34:22.860Z,59.30
2018-11-20T20:38:07.269Z,58.60
2018-11-20T20:41:33.777Z,59.20
2018-11-20T20:49:01.372Z,59.10
2018-11-20T21:03:31.216Z,59.10
2018-11-20T21:06:44.626Z,59.20
2018-11-20T21:09:53.350Z,59.30
2018-11-20T21:17:06.521Z,59.00
2018-11-20T21:23:20.532Z,59.40
2018-11-20T21:26:45.743Z,58.80
2018-11-20T21:33:42.274Z,59.50
2018-11-20T21:44:24.161Z,59.10
2018-11-20T21:47:41.092Z,59.10
2018-11-20T21:57:33.172Z,59.50
2018-11-20T22:05:08.115Z,59.50
2018-11-20T22:08:51.293Z,59.30
2018-11-20T22:12:16.201Z,59.10
2018-11-20T22:19:44.231Z,59.70
2018-11-20T22:26:56.518Z,59.10
2018-11-20T22:34:20.561Z,59.70
2018-11-20T22:45:03.947Z,59.40
2018-11-20T22:48:48.084Z,60.00
2018-11-20T22:56:33.847Z,59.70
2018-11-20T23:03:04.931Z,59.70
2018-11-20T23:17:37.072Z,59.60
2018-11-20T23:24:31.133Z,59.70
2018-11-20T23:27:42.119Z,59.50
2018-11-20T23:30:49.421Z,59.20
2018-11-20T23:37:27.675Z,59.80
2018-11-20T23:43:22.209Z,59.70
2018-11-20T23:49:25.285Z,59.70
2018-11-20T23:56:25.245Z,59.60
2018-11-20T23:59:30.817Z,60.10
